KJAN METAR and TAF | Updated Today

KJAN METAR

Jackson-Medgar Wiley Evers International Airport

Observation time: 42 min. ago

KJAN 301954Z 03012KT 10SM CLR 13/M01 A3033 RMK AO2 SLP266 T01331011

Need help? Read our tutorial on how to read METARs or read the parsed version below.

Jackson-Medgar Wiley Evers International Airport (KJAN) METAR

  • Weather conditions on Wed, 30 Nov 2022 19:54:00 +0000 (42 min. ago):
  • Present conditions: Dry
  • Clouds: Clear skies
  • Visibility: 16093 meters
  • Wind: 30 degrees at 12 knots
  • Temperature: 13 celsius
  • Dew point: -1 celsius
  • Pressure: 30.33 inHg
  • Remarks: AO2 SLP266 T01331011


Useful to know...

KJAN TAF

Jackson-Medgar Wiley Evers International Airport

KJAN 301806Z 3018/0118 36011G21KT P6SM SKC FM302200 01009KT P6SM SKC
Observation time: 2:30 hr. ago
Need help? Read our tutorial on how to read TAFs or read the parsed version below.

Parsed version of TAF for Jackson-Medgar Wiley Evers International Airport (KJAN)

  • From 30 November at 18:00 UTC, to day 01 of the month at 18:00 UTC
  • Clouds: No significant changes expected
  • Wind: 360 degrees at 11
  • From day 30 of the month at 22:00 UTC
  • Clouds: No significant changes expected
  • Wind: 10 degrees at 9

Airports near KJAN

KHKS Weather
Region: Jackson

Hawkins Field

Not found in our database
KMBO Weather
Region: Madison

Bruce Campbell Field

Not found in our database